sensor_id;sensor_type;location;lat;lon;timestamp;P1;durP1;ratioP1;P2;durP2;ratioP2
25049;SDS011;13046;49.814;9.918;2023-02-28T00:02:15;9.98;;;8.15;;
25049;SDS011;13046;49.814;9.918;2023-02-28T00:04:42;9.55;;;8.18;;
25049;SDS011;13046;49.814;9.918;2023-02-28T00:07:09;14.95;;;9.38;;
25049;SDS011;13046;49.814;9.918;2023-02-28T00:09:35;9.57;;;8.68;;
25049;SDS011;13046;49.814;9.918;2023-02-28T00:12:01;11.57;;;9.05;;
25049;SDS011;13046;49.814;9.918;2023-02-28T00:14:38;10.93;;;8.43;;
25049;SDS011;13046;49.814;9.918;2023-02-28T00:17:04;11.13;;;8.57;;
25049;SDS011;13046;49.814;9.918;2023-02-28T00:19:30;10.88;;;9.32;;
25049;SDS011;13046;49.814;9.918;2023-02-28T00:21:56;10.98;;;8.45;;
25049;SDS011;13046;49.814;9.918;2023-02-28T00:24:22;9.52;;;8.45;;
25049;SDS011;13046;49.814;9.918;2023-02-28T00:26:48;12.27;;;9.30;;
25049;SDS011;13046;49.814;9.918;2023-02-28T00:29:14;9.82;;;8.63;;
25049;SDS011;13046;49.814;9.918;2023-02-28T00:31:43;11.10;;;8.52;;
25049;SDS011;13046;49.814;9.918;2023-02-28T00:34:10;10.55;;;8.77;;
25049;SDS011;13046;49.814;9.918;2023-02-28T00:36:36;10.50;;;8.32;;
25049;SDS011;13046;49.814;9.918;2023-02-28T00:39:03;12.60;;;8.77;;
25049;SDS011;13046;49.814;9.918;2023-02-28T00:41:29;10.85;;;9.60;;
25049;SDS011;13046;49.814;9.918;2023-02-28T00:43:55;15.43;;;9.15;;
25049;SDS011;13046;49.814;9.918;2023-02-28T00:46:21;10.05;;;9.05;;
25049;SDS011;13046;49.814;9.918;2023-02-28T00:48:49;13.80;;;9.65;;
25049;SDS011;13046;49.814;9.918;2023-02-28T00:51:15;10.60;;;9.18;;
25049;SDS011;13046;49.814;9.918;2023-02-28T00:53:41;11.68;;;9.27;;
25049;SDS011;13046;49.814;9.918;2023-02-28T00:56:07;13.07;;;9.80;;
25049;SDS011;13046;49.814;9.918;2023-02-28T00:58:33;11.10;;;9.15;;
25049;SDS011;13046;49.814;9.918;2023-02-28T01:00:59;11.25;;;10.07;;
25049;SDS011;13046;49.814;9.918;2023-02-28T01:03:25;12.32;;;9.90;;
25049;SDS011;13046;49.814;9.918;2023-02-28T01:05:51;10.57;;;9.20;;
25049;SDS011;13046;49.814;9.918;2023-02-28T01:08:20;11.68;;;9.60;;
25049;SDS011;13046;49.814;9.918;2023-02-28T01:10:46;9.30;;;7.97;;
25049;SDS011;13046;49.814;9.918;2023-02-28T01:13:13;11.10;;;9.05;;
25049;SDS011;13046;49.814;9.918;2023-02-28T01:15:40;12.40;;;9.48;;
25049;SDS011;13046;49.814;9.918;2023-02-28T01:18:07;11.75;;;10.32;;
25049;SDS011;13046;49.814;9.918;2023-02-28T01:20:35;11.27;;;9.93;;
25049;SDS011;13046;49.814;9.918;2023-02-28T01:23:02;11.45;;;9.02;;
25049;SDS011;13046;49.814;9.918;2023-02-28T01:25:28;12.20;;;9.38;;
25049;SDS011;13046;49.814;9.918;2023-02-28T01:27:54;12.38;;;9.57;;
25049;SDS011;13046;49.814;9.918;2023-02-28T01:30:20;13.95;;;9.80;;
25049;SDS011;13046;49.814;9.918;2023-02-28T01:32:46;9.48;;;8.57;;
25049;SDS011;13046;49.814;9.918;2023-02-28T01:35:12;9.85;;;8.73;;
25049;SDS011;13046;49.814;9.918;2023-02-28T01:37:38;10.40;;;9.38;;
25049;SDS011;13046;49.814;9.918;2023-02-28T01:40:04;11.07;;;9.63;;
25049;SDS011;13046;49.814;9.918;2023-02-28T01:42:31;14.02;;;10.48;;
25049;SDS011;13046;49.814;9.918;2023-02-28T01:44:59;12.38;;;9.30;;
25049;SDS011;13046;49.814;9.918;2023-02-28T01:47:27;13.18;;;10.50;;
25049;SDS011;13046;49.814;9.918;2023-02-28T01:49:55;12.75;;;10.13;;
25049;SDS011;13046;49.814;9.918;2023-02-28T01:52:22;12.38;;;9.68;;
25049;SDS011;13046;49.814;9.918;2023-02-28T01:54:53;14.57;;;10.20;;
25049;SDS011;13046;49.814;9.918;2023-02-28T01:57:25;10.32;;;9.05;;
25049;SDS011;13046;49.814;9.918;2023-02-28T02:02:20;12.88;;;10.18;;
25049;SDS011;13046;49.814;9.918;2023-02-28T02:05:01;13.88;;;9.55;;
25049;SDS011;13046;49.814;9.918;2023-02-28T02:07:29;10.77;;;9.32;;
25049;SDS011;13046;49.814;9.918;2023-02-28T02:10:01;12.68;;;10.00;;
25049;SDS011;13046;49.814;9.918;2023-02-28T02:12:38;12.35;;;10.25;;
25049;SDS011;13046;49.814;9.918;2023-02-28T02:15:25;10.85;;;9.43;;
25049;SDS011;13046;49.814;9.918;2023-02-28T02:17:52;12.98;;;10.27;;
25049;SDS011;13046;49.814;9.918;2023-02-28T02:23:02;11.43;;;10.32;;
25049;SDS011;13046;49.814;9.918;2023-02-28T02:28:20;12.25;;;9.82;;
25049;SDS011;13046;49.814;9.918;2023-02-28T02:30:58;13.40;;;9.88;;
25049;SDS011;13046;49.814;9.918;2023-02-28T02:36:07;12.23;;;10.18;;
25049;SDS011;13046;49.814;9.918;2023-02-28T02:43:49;13.13;;;10.00;;
25049;SDS011;13046;49.814;9.918;2023-02-28T02:46:28;13.05;;;9.63;;
25049;SDS011;13046;49.814;9.918;2023-02-28T02:48:57;12.02;;;8.98;;
25049;SDS011;13046;49.814;9.918;2023-02-28T02:51:25;12.73;;;10.02;;
25049;SDS011;13046;49.814;9.918;2023-02-28T02:53:54;14.98;;;10.43;;
25049;SDS011;13046;49.814;9.918;2023-02-28T02:56:23;12.77;;;11.48;;
25049;SDS011;13046;49.814;9.918;2023-02-28T02:58:51;12.13;;;9.52;;
25049;SDS011;13046;49.814;9.918;2023-02-28T03:01:19;18.33;;;9.80;;
25049;SDS011;13046;49.814;9.918;2023-02-28T03:04:11;14.73;;;9.15;;
25049;SDS011;13046;49.814;9.918;2023-02-28T03:06:39;11.38;;;9.68;;
25049;SDS011;13046;49.814;9.918;2023-02-28T03:09:05;11.25;;;9.73;;
25049;SDS011;13046;49.814;9.918;2023-02-28T03:11:32;11.25;;;9.90;;
25049;SDS011;13046;49.814;9.918;2023-02-28T03:27:10;15.18;;;10.85;;
25049;SDS011;13046;49.814;9.918;2023-02-28T03:29:38;12.63;;;10.85;;
25049;SDS011;13046;49.814;9.918;2023-02-28T03:32:07;16.08;;;11.13;;
25049;SDS011;13046;49.814;9.918;2023-02-28T03:34:39;13.23;;;10.10;;
25049;SDS011;13046;49.814;9.918;2023-02-28T03:37:09;14.73;;;10.07;;
25049;SDS011;13046;49.814;9.918;2023-02-28T03:39:59;16.20;;;10.80;;
25049;SDS011;13046;49.814;9.918;2023-02-28T03:42:27;17.38;;;10.65;;
25049;SDS011;13046;49.814;9.918;2023-02-28T03:44:55;13.10;;;10.40;;
25049;SDS011;13046;49.814;9.918;2023-02-28T03:49:59;13.30;;;11.00;;
25049;SDS011;13046;49.814;9.918;2023-02-28T03:52:27;13.23;;;10.85;;
25049;SDS011;13046;49.814;9.918;2023-02-28T03:54:56;16.63;;;12.05;;
25049;SDS011;13046;49.814;9.918;2023-02-28T03:57:43;15.20;;;11.93;;
25049;SDS011;13046;49.814;9.918;2023-02-28T04:00:21;16.33;;;11.10;;
25049;SDS011;13046;49.814;9.918;2023-02-28T04:02:53;14.75;;;11.30;;
25049;SDS011;13046;49.814;9.918;2023-02-28T04:05:19;13.32;;;11.65;;
25049;SDS011;13046;49.814;9.918;2023-02-28T04:07:46;14.35;;;11.32;;
25049;SDS011;13046;49.814;9.918;2023-02-28T04:10:13;16.65;;;11.15;;
25049;SDS011;13046;49.814;9.918;2023-02-28T04:12:40;14.45;;;11.18;;
25049;SDS011;13046;49.814;9.918;2023-02-28T04:15:06;15.68;;;11.82;;
25049;SDS011;13046;49.814;9.918;2023-02-28T04:17:32;13.63;;;11.43;;
25049;SDS011;13046;49.814;9.918;2023-02-28T04:19:58;12.05;;;10.23;;
25049;SDS011;13046;49.814;9.918;2023-02-28T04:22:24;14.90;;;12.02;;
25049;SDS011;13046;49.814;9.918;2023-02-28T04:24:51;14.23;;;10.38;;
25049;SDS011;13046;49.814;9.918;2023-02-28T04:27:19;13.60;;;10.50;;
25049;SDS011;13046;49.814;9.918;2023-02-28T04:29:45;14.05;;;10.00;;
25049;SDS011;13046;49.814;9.918;2023-02-28T04:32:11;15.50;;;11.15;;
25049;SDS011;13046;49.814;9.918;2023-02-28T04:34:37;16.17;;;10.88;;
25049;SDS011;13046;49.814;9.918;2023-02-28T04:37:04;13.35;;;9.82;;
25049;SDS011;13046;49.814;9.918;2023-02-28T04:39:30;14.73;;;9.95;;
25049;SDS011;13046;49.814;9.918;2023-02-28T04:41:56;14.40;;;10.98;;
25049;SDS011;13046;49.814;9.918;2023-02-28T04:44:22;12.68;;;10.82;;
25049;SDS011;13046;49.814;9.918;2023-02-28T04:46:48;13.38;;;10.45;;
25049;SDS011;13046;49.814;9.918;2023-02-28T04:49:15;12.65;;;9.70;;
25049;SDS011;13046;49.814;9.918;2023-02-28T04:51:41;12.45;;;10.32;;
25049;SDS011;13046;49.814;9.918;2023-02-28T04:54:08;13.30;;;10.48;;
25049;SDS011;13046;49.814;9.918;2023-02-28T04:56:34;14.60;;;11.00;;
25049;SDS011;13046;49.814;9.918;2023-02-28T04:59:00;12.45;;;10.10;;
25049;SDS011;13046;49.814;9.918;2023-02-28T05:01:31;10.70;;;9.48;;
25049;SDS011;13046;49.814;9.918;2023-02-28T05:03:58;17.38;;;10.23;;
25049;SDS011;13046;49.814;9.918;2023-02-28T05:06:25;10.63;;;9.50;;
25049;SDS011;13046;49.814;9.918;2023-02-28T05:08:52;12.68;;;9.38;;
25049;SDS011;13046;49.814;9.918;2023-02-28T05:11:22;13.57;;;9.15;;
25049;SDS011;13046;49.814;9.918;2023-02-28T05:13:49;10.70;;;9.57;;
25049;SDS011;13046;49.814;9.918;2023-02-28T05:16:16;12.77;;;10.63;;
25049;SDS011;13046;49.814;9.918;2023-02-28T05:18:42;11.82;;;9.77;;
25049;SDS011;13046;49.814;9.918;2023-02-28T05:21:48;13.40;;;9.82;;
25049;SDS011;13046;49.814;9.918;2023-02-28T05:24:04;16.08;;;8.77;;
25049;SDS011;13046;49.814;9.918;2023-02-28T05:26:31;11.45;;;10.02;;
25049;SDS011;13046;49.814;9.918;2023-02-28T05:28:59;12.60;;;9.77;;
25049;SDS011;13046;49.814;9.918;2023-02-28T05:31:25;9.98;;;8.30;;
25049;SDS011;13046;49.814;9.918;2023-02-28T05:33:52;10.68;;;8.40;;
25049;SDS011;13046;49.814;9.918;2023-02-28T05:36:18;11.10;;;8.88;;
25049;SDS011;13046;49.814;9.918;2023-02-28T05:38:45;14.15;;;9.10;;
25049;SDS011;13046;49.814;9.918;2023-02-28T05:41:12;11.00;;;9.05;;
25049;SDS011;13046;49.814;9.918;2023-02-28T05:43:38;11.15;;;8.60;;
25049;SDS011;13046;49.814;9.918;2023-02-28T05:46:08;10.75;;;8.38;;
25049;SDS011;13046;49.814;9.918;2023-02-28T05:48:35;11.50;;;9.45;;
25049;SDS011;13046;49.814;9.918;2023-02-28T05:51:01;12.02;;;9.25;;
25049;SDS011;13046;49.814;9.918;2023-02-28T05:53:27;11.15;;;9.43;;
25049;SDS011;13046;49.814;9.918;2023-02-28T05:55:54;12.95;;;8.95;;
25049;SDS011;13046;49.814;9.918;2023-02-28T05:58:20;9.60;;;8.35;;
25049;SDS011;13046;49.814;9.918;2023-02-28T06:00:46;11.35;;;8.88;;
25049;SDS011;13046;49.814;9.918;2023-02-28T06:03:12;11.15;;;8.77;;
25049;SDS011;13046;49.814;9.918;2023-02-28T06:05:38;12.02;;;8.75;;
25049;SDS011;13046;49.814;9.918;2023-02-28T06:08:04;14.88;;;12.85;;
25049;SDS011;13046;49.814;9.918;2023-02-28T06:10:34;10.18;;;8.30;;
25049;SDS011;13046;49.814;9.918;2023-02-28T06:13:00;8.93;;;8.00;;
25049;SDS011;13046;49.814;9.918;2023-02-28T06:15:30;11.57;;;8.80;;
25049;SDS011;13046;49.814;9.918;2023-02-28T06:17:56;11.23;;;8.48;;
25049;SDS011;13046;49.814;9.918;2023-02-28T06:20:22;11.25;;;8.23;;
25049;SDS011;13046;49.814;9.918;2023-02-28T06:22:48;12.35;;;8.18;;
25049;SDS011;13046;49.814;9.918;2023-02-28T06:25:19;9.68;;;8.68;;
25049;SDS011;13046;49.814;9.918;2023-02-28T06:27:45;14.88;;;8.65;;
25049;SDS011;13046;49.814;9.918;2023-02-28T06:30:11;10.48;;;9.35;;
25049;SDS011;13046;49.814;9.918;2023-02-28T06:32:38;10.43;;;7.75;;
25049;SDS011;13046;49.814;9.918;2023-02-28T06:35:04;12.75;;;8.43;;
25049;SDS011;13046;49.814;9.918;2023-02-28T06:37:31;9.60;;;8.32;;
25049;SDS011;13046;49.814;9.918;2023-02-28T06:39:57;11.10;;;8.82;;
25049;SDS011;13046;49.814;9.918;2023-02-28T06:42:23;11.40;;;8.82;;
25049;SDS011;13046;49.814;9.918;2023-02-28T06:44:55;11.68;;;8.45;;
25049;SDS011;13046;49.814;9.918;2023-02-28T06:47:22;12.45;;;8.60;;
25049;SDS011;13046;49.814;9.918;2023-02-28T06:49:48;10.90;;;8.50;;
25049;SDS011;13046;49.814;9.918;2023-02-28T06:52:14;11.13;;;8.15;;
25049;SDS011;13046;49.814;9.918;2023-02-28T06:54:40;11.70;;;8.70;;
25049;SDS011;13046;49.814;9.918;2023-02-28T06:57:07;9.13;;;7.82;;
25049;SDS011;13046;49.814;9.918;2023-02-28T06:59:33;10.15;;;8.38;;
25049;SDS011;13046;49.814;9.918;2023-02-28T07:02:00;13.15;;;8.43;;
25049;SDS011;13046;49.814;9.918;2023-02-28T07:04:27;14.10;;;10.82;;
25049;SDS011;13046;49.814;9.918;2023-02-28T07:06:54;12.25;;;9.48;;
25049;SDS011;13046;49.814;9.918;2023-02-28T07:09:21;14.80;;;9.32;;
25049;SDS011;13046;49.814;9.918;2023-02-28T07:11:48;11.20;;;8.80;;
25049;SDS011;13046;49.814;9.918;2023-02-28T07:14:14;11.85;;;8.63;;
25049;SDS011;13046;49.814;9.918;2023-02-28T07:16:40;12.18;;;8.98;;
25049;SDS011;13046;49.814;9.918;2023-02-28T07:19:06;11.25;;;8.90;;
25049;SDS011;13046;49.814;9.918;2023-02-28T07:21:32;14.77;;;11.15;;
25049;SDS011;13046;49.814;9.918;2023-02-28T07:23:58;11.93;;;9.52;;
25049;SDS011;13046;49.814;9.918;2023-02-28T07:26:24;10.77;;;9.38;;
25049;SDS011;13046;49.814;9.918;2023-02-28T07:28:50;12.55;;;9.10;;
25049;SDS011;13046;49.814;9.918;2023-02-28T07:31:16;10.98;;;8.98;;
25049;SDS011;13046;49.814;9.918;2023-02-28T07:33:43;12.57;;;10.32;;
25049;SDS011;13046;49.814;9.918;2023-02-28T07:36:10;13.25;;;9.00;;
25049;SDS011;13046;49.814;9.918;2023-02-28T07:38:41;14.32;;;9.90;;
25049;SDS011;13046;49.814;9.918;2023-02-28T07:41:08;14.60;;;10.02;;
25049;SDS011;13046;49.814;9.918;2023-02-28T07:43:35;11.05;;;9.63;;
25049;SDS011;13046;49.814;9.918;2023-02-28T07:46:11;12.80;;;10.73;;
25049;SDS011;13046;49.814;9.918;2023-02-28T07:48:37;14.65;;;10.38;;
25049;SDS011;13046;49.814;9.918;2023-02-28T07:51:03;15.05;;;10.88;;
25049;SDS011;13046;49.814;9.918;2023-02-28T07:53:29;12.00;;;9.80;;
25049;SDS011;13046;49.814;9.918;2023-02-28T07:55:56;14.23;;;10.63;;
25049;SDS011;13046;49.814;9.918;2023-02-28T07:58:23;15.90;;;11.38;;
25049;SDS011;13046;49.814;9.918;2023-02-28T08:00:49;14.90;;;11.20;;
25049;SDS011;13046;49.814;9.918;2023-02-28T08:03:15;13.40;;;11.55;;
25049;SDS011;13046;49.814;9.918;2023-02-28T08:05:42;16.17;;;11.55;;
25049;SDS011;13046;49.814;9.918;2023-02-28T08:08:08;17.60;;;12.18;;
25049;SDS011;13046;49.814;9.918;2023-02-28T08:10:34;16.17;;;12.75;;
25049;SDS011;13046;49.814;9.918;2023-02-28T08:13:00;13.95;;;11.23;;
25049;SDS011;13046;49.814;9.918;2023-02-28T08:15:26;13.15;;;11.02;;
25049;SDS011;13046;49.814;9.918;2023-02-28T08:17:52;21.40;;;13.90;;
25049;SDS011;13046;49.814;9.918;2023-02-28T08:20:18;16.48;;;13.27;;
25049;SDS011;13046;49.814;9.918;2023-02-28T08:22:44;17.17;;;12.95;;
25049;SDS011;13046;49.814;9.918;2023-02-28T08:25:10;18.13;;;13.23;;
25049;SDS011;13046;49.814;9.918;2023-02-28T08:27:36;18.67;;;12.27;;
25049;SDS011;13046;49.814;9.918;2023-02-28T08:30:02;16.67;;;12.30;;
25049;SDS011;13046;49.814;9.918;2023-02-28T08:32:29;17.38;;;13.32;;
25049;SDS011;13046;49.814;9.918;2023-02-28T08:34:55;16.88;;;12.32;;
25049;SDS011;13046;49.814;9.918;2023-02-28T08:37:21;17.45;;;12.40;;
25049;SDS011;13046;49.814;9.918;2023-02-28T08:39:47;15.68;;;13.02;;
25049;SDS011;13046;49.814;9.918;2023-02-28T08:42:13;19.30;;;13.30;;
25049;SDS011;13046;49.814;9.918;2023-02-28T08:44:39;17.50;;;12.68;;
25049;SDS011;13046;49.814;9.918;2023-02-28T08:47:05;20.70;;;13.10;;
25049;SDS011;13046;49.814;9.918;2023-02-28T08:49:32;17.42;;;13.57;;
25049;SDS011;13046;49.814;9.918;2023-02-28T08:51:58;15.43;;;13.23;;
25049;SDS011;13046;49.814;9.918;2023-02-28T08:54:24;19.50;;;14.75;;
25049;SDS011;13046;49.814;9.918;2023-02-28T08:56:50;16.88;;;12.18;;
25049;SDS011;13046;49.814;9.918;2023-02-28T08:59:16;17.10;;;12.85;;
25049;SDS011;13046;49.814;9.918;2023-02-28T09:01:42;19.02;;;14.13;;
25049;SDS011;13046;49.814;9.918;2023-02-28T09:04:08;16.38;;;12.88;;
25049;SDS011;13046;49.814;9.918;2023-02-28T09:06:36;18.50;;;12.75;;
25049;SDS011;13046;49.814;9.918;2023-02-28T09:09:02;16.38;;;13.27;;
25049;SDS011;13046;49.814;9.918;2023-02-28T09:11:31;21.00;;;14.80;;
25049;SDS011;13046;49.814;9.918;2023-02-28T09:13:57;20.52;;;14.73;;
25049;SDS011;13046;49.814;9.918;2023-02-28T09:16:25;17.58;;;13.45;;
25049;SDS011;13046;49.814;9.918;2023-02-28T09:18:53;19.40;;;14.70;;
25049;SDS011;13046;49.814;9.918;2023-02-28T09:21:19;22.67;;;15.82;;
25049;SDS011;13046;49.814;9.918;2023-02-28T09:23:46;17.92;;;14.10;;
25049;SDS011;13046;49.814;9.918;2023-02-28T09:26:17;17.77;;;14.68;;
25049;SDS011;13046;49.814;9.918;2023-02-28T09:28:44;14.45;;;12.90;;
25049;SDS011;13046;49.814;9.918;2023-02-28T09:31:11;42.25;;;34.55;;
25049;SDS011;13046;49.814;9.918;2023-02-28T09:33:48;21.85;;;14.20;;
25049;SDS011;13046;49.814;9.918;2023-02-28T09:36:15;29.98;;;19.48;;
25049;SDS011;13046;49.814;9.918;2023-02-28T09:38:41;22.23;;;15.25;;
25049;SDS011;13046;49.814;9.918;2023-02-28T09:41:15;17.92;;;13.52;;
25049;SDS011;13046;49.814;9.918;2023-02-28T09:43:45;19.73;;;13.65;;
25049;SDS011;13046;49.814;9.918;2023-02-28T09:46:21;20.63;;;14.35;;
25049;SDS011;13046;49.814;9.918;2023-02-28T09:48:59;34.78;;;23.45;;
25049;SDS011;13046;49.814;9.918;2023-02-28T09:51:30;16.42;;;12.30;;
25049;SDS011;13046;49.814;9.918;2023-02-28T09:54:03;14.57;;;11.32;;
25049;SDS011;13046;49.814;9.918;2023-02-28T09:56:36;20.23;;;13.52;;
25049;SDS011;13046;49.814;9.918;2023-02-28T10:01:51;19.25;;;14.23;;
25049;SDS011;13046;49.814;9.918;2023-02-28T10:10:02;16.77;;;12.60;;
25049;SDS011;13046;49.814;9.918;2023-02-28T10:12:33;21.00;;;12.18;;
25049;SDS011;13046;49.814;9.918;2023-02-28T10:15:02;17.95;;;14.10;;
25049;SDS011;13046;49.814;9.918;2023-02-28T10:17:36;15.18;;;11.60;;
25049;SDS011;13046;49.814;9.918;2023-02-28T10:20:17;16.38;;;13.63;;
25049;SDS011;13046;49.814;9.918;2023-02-28T10:23:21;14.95;;;12.65;;
25049;SDS011;13046;49.814;9.918;2023-02-28T10:25:39;16.73;;;13.98;;
25049;SDS011;13046;49.814;9.918;2023-02-28T10:28:09;12.80;;;10.88;;
25049;SDS011;13046;49.814;9.918;2023-02-28T10:30:37;17.98;;;11.93;;
25049;SDS011;13046;49.814;9.918;2023-02-28T10:33:43;19.67;;;13.23;;
25049;SDS011;13046;49.814;9.918;2023-02-28T10:36:02;28.95;;;19.13;;
25049;SDS011;13046;49.814;9.918;2023-02-28T10:41:09;18.42;;;15.55;;
25049;SDS011;13046;49.814;9.918;2023-02-28T10:43:53;20.77;;;13.77;;
25049;SDS011;13046;49.814;9.918;2023-02-28T10:46:39;19.15;;;13.85;;
25049;SDS011;13046;49.814;9.918;2023-02-28T10:49:07;22.15;;;14.73;;
25049;SDS011;13046;49.814;9.918;2023-02-28T10:51:39;15.32;;;13.73;;
25049;SDS011;13046;49.814;9.918;2023-02-28T10:54:13;18.27;;;13.15;;
25049;SDS011;13046;49.814;9.918;2023-02-28T10:56:40;15.52;;;12.77;;
25049;SDS011;13046;49.814;9.918;2023-02-28T11:01:53;13.45;;;11.93;;
25049;SDS011;13046;49.814;9.918;2023-02-28T11:06:56;19.00;;;13.00;;
25049;SDS011;13046;49.814;9.918;2023-02-28T11:11:55;17.95;;;13.30;;
25049;SDS011;13046;49.814;9.918;2023-02-28T11:14:22;20.25;;;16.50;;
25049;SDS011;13046;49.814;9.918;2023-02-28T11:16:50;18.45;;;13.60;;
25049;SDS011;13046;49.814;9.918;2023-02-28T11:19:28;16.90;;;12.93;;
25049;SDS011;13046;49.814;9.918;2023-02-28T11:21:59;19.90;;;14.55;;
25049;SDS011;13046;49.814;9.918;2023-02-28T11:24:34;22.45;;;14.18;;
25049;SDS011;13046;49.814;9.918;2023-02-28T11:27:01;18.27;;;13.27;;
25049;SDS011;13046;49.814;9.918;2023-02-28T11:29:29;19.92;;;14.70;;
25049;SDS011;13046;49.814;9.918;2023-02-28T11:34:31;20.67;;;14.45;;
25049;SDS011;13046;49.814;9.918;2023-02-28T11:36:58;14.63;;;12.75;;
25049;SDS011;13046;49.814;9.918;2023-02-28T11:39:25;17.98;;;13.70;;
25049;SDS011;13046;49.814;9.918;2023-02-28T11:44:33;19.80;;;15.50;;
25049;SDS011;13046;49.814;9.918;2023-02-28T11:47:06;17.50;;;13.43;;
25049;SDS011;13046;49.814;9.918;2023-02-28T11:54:48;17.05;;;13.43;;
25049;SDS011;13046;49.814;9.918;2023-02-28T12:00:06;16.75;;;14.02;;
25049;SDS011;13046;49.814;9.918;2023-02-28T12:03:01;17.90;;;14.60;;
25049;SDS011;13046;49.814;9.918;2023-02-28T12:05:42;29.30;;;21.20;;
25049;SDS011;13046;49.814;9.918;2023-02-28T12:13:26;14.55;;;12.95;;
25049;SDS011;13046;49.814;9.918;2023-02-28T12:28:17;15.85;;;12.07;;
25049;SDS011;13046;49.814;9.918;2023-02-28T12:30:56;21.70;;;14.88;;
25049;SDS011;13046;49.814;9.918;2023-02-28T12:33:46;23.52;;;15.60;;
25049;SDS011;13046;49.814;9.918;2023-02-28T12:41:26;17.85;;;13.73;;
25049;SDS011;13046;49.814;9.918;2023-02-28T12:44:08;14.98;;;13.38;;
25049;SDS011;13046;49.814;9.918;2023-02-28T12:46:39;16.42;;;13.95;;
25049;SDS011;13046;49.814;9.918;2023-02-28T12:49:37;15.57;;;13.93;;
25049;SDS011;13046;49.814;9.918;2023-02-28T12:55:19;14.65;;;12.80;;
25049;SDS011;13046;49.814;9.918;2023-02-28T12:58:01;15.98;;;13.75;;
25049;SDS011;13046;49.814;9.918;2023-02-28T13:01:12;18.75;;;13.20;;
25049;SDS011;13046;49.814;9.918;2023-02-28T13:03:41;14.93;;;13.35;;
25049;SDS011;13046;49.814;9.918;2023-02-28T13:09:10;13.40;;;12.00;;
25049;SDS011;13046;49.814;9.918;2023-02-28T13:11:48;15.95;;;13.32;;
25049;SDS011;13046;49.814;9.918;2023-02-28T13:14:26;16.63;;;14.02;;
25049;SDS011;13046;49.814;9.918;2023-02-28T13:19:41;19.30;;;14.40;;
25049;SDS011;13046;49.814;9.918;2023-02-28T13:24:57;21.00;;;15.23;;
25049;SDS011;13046;49.814;9.918;2023-02-28T13:27:39;17.50;;;14.43;;
25049;SDS011;13046;49.814;9.918;2023-02-28T13:36:00;16.77;;;12.70;;
25049;SDS011;13046;49.814;9.918;2023-02-28T13:38:44;16.13;;;13.90;;
25049;SDS011;13046;49.814;9.918;2023-02-28T13:46:32;15.98;;;14.07;;
25049;SDS011;13046;49.814;9.918;2023-02-28T13:51:50;17.67;;;15.00;;
25049;SDS011;13046;49.814;9.918;2023-02-28T13:54:45;19.05;;;14.98;;
25049;SDS011;13046;49.814;9.918;2023-02-28T13:57:21;17.05;;;14.27;;
25049;SDS011;13046;49.814;9.918;2023-02-28T14:05:47;22.60;;;15.05;;
25049;SDS011;13046;49.814;9.918;2023-02-28T14:08:55;24.38;;;20.75;;
25049;SDS011;13046;49.814;9.918;2023-02-28T14:11:32;19.35;;;16.15;;
25049;SDS011;13046;49.814;9.918;2023-02-28T14:14:00;17.65;;;14.13;;
25049;SDS011;13046;49.814;9.918;2023-02-28T14:16:27;16.90;;;13.95;;
25049;SDS011;13046;49.814;9.918;2023-02-28T14:22:48;18.27;;;15.18;;
25049;SDS011;13046;49.814;9.918;2023-02-28T14:33:13;18.92;;;15.32;;
25049;SDS011;13046;49.814;9.918;2023-02-28T14:36:17;16.48;;;13.00;;
25049;SDS011;13046;49.814;9.918;2023-02-28T14:41:20;16.85;;;13.05;;
25049;SDS011;13046;49.814;9.918;2023-02-28T14:43:57;14.63;;;13.13;;
25049;SDS011;13046;49.814;9.918;2023-02-28T14:46:37;18.80;;;13.23;;
25049;SDS011;13046;49.814;9.918;2023-02-28T14:49:05;16.52;;;13.00;;
25049;SDS011;13046;49.814;9.918;2023-02-28T14:51:37;15.65;;;13.45;;
25049;SDS011;13046;49.814;9.918;2023-02-28T14:54:03;20.25;;;13.98;;
25049;SDS011;13046;49.814;9.918;2023-02-28T14:56:34;14.88;;;12.57;;
25049;SDS011;13046;49.814;9.918;2023-02-28T14:59:02;19.60;;;15.00;;
25049;SDS011;13046;49.814;9.918;2023-02-28T15:01:29;18.38;;;14.52;;
25049;SDS011;13046;49.814;9.918;2023-02-28T15:04:01;19.30;;;12.98;;
25049;SDS011;13046;49.814;9.918;2023-02-28T15:06:29;16.83;;;12.93;;
25049;SDS011;13046;49.814;9.918;2023-02-28T15:11:33;32.45;;;22.50;;
25049;SDS011;13046;49.814;9.918;2023-02-28T15:14:00;21.15;;;16.17;;
25049;SDS011;13046;49.814;9.918;2023-02-28T15:16:31;21.52;;;16.70;;
25049;SDS011;13046;49.814;9.918;2023-02-28T15:18:59;15.35;;;13.55;;
25049;SDS011;13046;49.814;9.918;2023-02-28T15:21:35;40.42;;;27.20;;
25049;SDS011;13046;49.814;9.918;2023-02-28T15:24:06;25.92;;;15.98;;
25049;SDS011;13046;49.814;9.918;2023-02-28T15:26:33;19.27;;;13.15;;
25049;SDS011;13046;49.814;9.918;2023-02-28T15:29:22;18.15;;;13.55;;
25049;SDS011;13046;49.814;9.918;2023-02-28T15:32:20;16.25;;;12.35;;
25049;SDS011;13046;49.814;9.918;2023-02-28T15:34:46;15.55;;;12.05;;
25049;SDS011;13046;49.814;9.918;2023-02-28T15:40:17;17.88;;;12.68;;
25049;SDS011;13046;49.814;9.918;2023-02-28T15:45:51;15.68;;;12.95;;
25049;SDS011;13046;49.814;9.918;2023-02-28T15:48:23;17.92;;;13.88;;
25049;SDS011;13046;49.814;9.918;2023-02-28T15:53:26;17.27;;;13.13;;
25049;SDS011;13046;49.814;9.918;2023-02-28T15:56:00;16.75;;;13.73;;
25049;SDS011;13046;49.814;9.918;2023-02-28T15:58:28;17.65;;;12.90;;
25049;SDS011;13046;49.814;9.918;2023-02-28T16:01:06;15.40;;;12.50;;
25049;SDS011;13046;49.814;9.918;2023-02-28T16:03:46;16.70;;;13.23;;
25049;SDS011;13046;49.814;9.918;2023-02-28T16:06:23;18.70;;;13.35;;
25049;SDS011;13046;49.814;9.918;2023-02-28T16:08:59;21.33;;;13.95;;
25049;SDS011;13046;49.814;9.918;2023-02-28T16:11:25;23.77;;;15.95;;
25049;SDS011;13046;49.814;9.918;2023-02-28T16:13:51;21.55;;;14.45;;
25049;SDS011;13046;49.814;9.918;2023-02-28T16:16:18;26.60;;;21.63;;
25049;SDS011;13046;49.814;9.918;2023-02-28T16:18:45;21.95;;;17.77;;
25049;SDS011;13046;49.814;9.918;2023-02-28T16:21:11;18.58;;;15.35;;
25049;SDS011;13046;49.814;9.918;2023-02-28T16:23:37;19.95;;;15.13;;
25049;SDS011;13046;49.814;9.918;2023-02-28T16:26:03;20.95;;;17.27;;
25049;SDS011;13046;49.814;9.918;2023-02-28T16:28:30;19.58;;;17.35;;
25049;SDS011;13046;49.814;9.918;2023-02-28T16:30:57;20.85;;;16.45;;
25049;SDS011;13046;49.814;9.918;2023-02-28T16:33:25;22.85;;;17.88;;
25049;SDS011;13046;49.814;9.918;2023-02-28T16:35:51;27.75;;;18.17;;
25049;SDS011;13046;49.814;9.918;2023-02-28T16:38:17;44.85;;;30.25;;
25049;SDS011;13046;49.814;9.918;2023-02-28T16:40:44;36.45;;;22.85;;
25049;SDS011;13046;49.814;9.918;2023-02-28T16:43:16;31.25;;;21.05;;
25049;SDS011;13046;49.814;9.918;2023-02-28T16:45:44;31.33;;;19.27;;
25049;SDS011;13046;49.814;9.918;2023-02-28T16:48:12;41.90;;;26.25;;
25049;SDS011;13046;49.814;9.918;2023-02-28T16:50:38;31.33;;;20.83;;
25049;SDS011;13046;49.814;9.918;2023-02-28T16:53:04;30.50;;;20.15;;
25049;SDS011;13046;49.814;9.918;2023-02-28T16:55:30;32.22;;;19.50;;
25049;SDS011;13046;49.814;9.918;2023-02-28T16:57:59;27.85;;;18.88;;
25049;SDS011;13046;49.814;9.918;2023-02-28T17:00:27;65.00;;;38.97;;
25049;SDS011;13046;49.814;9.918;2023-02-28T17:02:53;26.45;;;19.10;;
25049;SDS011;13046;49.814;9.918;2023-02-28T17:05:19;35.88;;;18.38;;